sensor_id;sensor_type;location;lat;lon;timestamp;temperature;humidity
20526;DHT22;10421;49.142;9.232;2024-02-21T00:00:22;10.40;99.90
20526;DHT22;10421;49.142;9.232;2024-02-21T00:02:50;10.40;99.90
20526;DHT22;10421;49.142;9.232;2024-02-21T00:05:17;10.30;99.90
20526;DHT22;10421;49.142;9.232;2024-02-21T00:07:44;10.30;99.90
20526;DHT22;10421;49.142;9.232;2024-02-21T00:10:11;10.30;99.90
20526;DHT22;10421;49.142;9.232;2024-02-21T00:12:38;10.30;99.90
20526;DHT22;10421;49.142;9.232;2024-02-21T00:15:07;10.60;99.90
20526;DHT22;10421;49.142;9.232;2024-02-21T00:17:35;10.30;99.90
20526;DHT22;10421;49.142;9.232;2024-02-21T00:20:03;10.40;99.90
20526;DHT22;10421;49.142;9.232;2024-02-21T00:22:30;10.50;99.90
20526;DHT22;10421;49.142;9.232;2024-02-21T00:24:59;10.50;99.90
20526;DHT22;10421;49.142;9.232;2024-02-21T00:27:26;10.60;99.90
20526;DHT22;10421;49.142;9.232;2024-02-21T00:29:52;10.60;99.90
20526;DHT22;10421;49.142;9.232;2024-02-21T00:32:19;10.60;99.90
20526;DHT22;10421;49.142;9.232;2024-02-21T00:34:49;10.50;99.90
20526;DHT22;10421;49.142;9.232;2024-02-21T00:37:17;10.30;99.90
20526;DHT22;10421;49.142;9.232;2024-02-21T00:39:44;10.50;99.90
20526;DHT22;10421;49.142;9.232;2024-02-21T00:42:12;10.70;99.90
20526;DHT22;10421;49.142;9.232;2024-02-21T00:44:39;10.80;99.90
20526;DHT22;10421;49.142;9.232;2024-02-21T00:47:06;10.90;99.80
20526;DHT22;10421;49.142;9.232;2024-02-21T00:49:33;10.80;99.60
20526;DHT22;10421;49.142;9.232;2024-02-21T00:52:02;10.90;99.70
20526;DHT22;10421;49.142;9.232;2024-02-21T00:54:29;10.70;99.80
20526;DHT22;10421;49.142;9.232;2024-02-21T00:56:56;10.60;99.90
20526;DHT22;10421;49.142;9.232;2024-02-21T00:59:23;10.30;99.90
20526;DHT22;10421;49.142;9.232;2024-02-21T01:01:50;10.30;99.90
20526;DHT22;10421;49.142;9.232;2024-02-21T01:04:17;10.30;99.90
20526;DHT22;10421;49.142;9.232;2024-02-21T01:06:44;10.30;99.90
20526;DHT22;10421;49.142;9.232;2024-02-21T01:09:12;10.30;99.90
20526;DHT22;10421;49.142;9.232;2024-02-21T01:11:39;10.40;99.90
20526;DHT22;10421;49.142;9.232;2024-02-21T01:14:06;10.60;99.90
20526;DHT22;10421;49.142;9.232;2024-02-21T01:16:33;10.40;99.90
20526;DHT22;10421;49.142;9.232;2024-02-21T01:18:59;10.20;99.90
20526;DHT22;10421;49.142;9.232;2024-02-21T01:21:26;10.30;99.90
20526;DHT22;10421;49.142;9.232;2024-02-21T01:23:53;10.40;99.90
20526;DHT22;10421;49.142;9.232;2024-02-21T01:26:21;10.50;99.90
20526;DHT22;10421;49.142;9.232;2024-02-21T01:28:48;10.60;99.80
20526;DHT22;10421;49.142;9.232;2024-02-21T01:31:15;10.60;99.90
20526;DHT22;10421;49.142;9.232;2024-02-21T01:33:41;10.50;99.90
20526;DHT22;10421;49.142;9.232;2024-02-21T01:36:08;10.50;99.90
20526;DHT22;10421;49.142;9.232;2024-02-21T01:38:35;10.30;99.90
20526;DHT22;10421;49.142;9.232;2024-02-21T01:41:02;10.00;99.90
20526;DHT22;10421;49.142;9.232;2024-02-21T01:43:30;9.80;99.90
20526;DHT22;10421;49.142;9.232;2024-02-21T01:45:57;9.80;99.90
20526;DHT22;10421;49.142;9.232;2024-02-21T01:48:24;9.60;99.90
20526;DHT22;10421;49.142;9.232;2024-02-21T01:50:53;9.60;99.90
20526;DHT22;10421;49.142;9.232;2024-02-21T01:53:22;9.70;99.90
20526;DHT22;10421;49.142;9.232;2024-02-21T01:55:49;9.80;99.90
20526;DHT22;10421;49.142;9.232;2024-02-21T01:58:17;9.90;99.90
20526;DHT22;10421;49.142;9.232;2024-02-21T02:00:47;9.80;99.90
20526;DHT22;10421;49.142;9.232;2024-02-21T02:03:14;9.90;99.90
20526;DHT22;10421;49.142;9.232;2024-02-21T02:05:43;10.00;99.90
20526;DHT22;10421;49.142;9.232;2024-02-21T02:08:10;10.00;99.90
20526;DHT22;10421;49.142;9.232;2024-02-21T02:10:37;10.00;99.90
20526;DHT22;10421;49.142;9.232;2024-02-21T02:13:04;10.10;99.90
20526;DHT22;10421;49.142;9.232;2024-02-21T02:15:38;10.20;99.90
20526;DHT22;10421;49.142;9.232;2024-02-21T02:18:06;10.40;99.90
20526;DHT22;10421;49.142;9.232;2024-02-21T02:20:33;10.50;99.90
20526;DHT22;10421;49.142;9.232;2024-02-21T02:23:01;10.60;99.90
20526;DHT22;10421;49.142;9.232;2024-02-21T02:25:32;10.70;99.90
20526;DHT22;10421;49.142;9.232;2024-02-21T02:28:00;10.90;99.90
20526;DHT22;10421;49.142;9.232;2024-02-21T02:30:27;10.90;99.90
20526;DHT22;10421;49.142;9.232;2024-02-21T02:32:54;10.90;99.90
20526;DHT22;10421;49.142;9.232;2024-02-21T02:35:21;11.00;99.90
20526;DHT22;10421;49.142;9.232;2024-02-21T02:37:48;11.10;99.90
20526;DHT22;10421;49.142;9.232;2024-02-21T02:40:16;11.10;99.90
20526;DHT22;10421;49.142;9.232;2024-02-21T02:42:44;11.00;99.90
20526;DHT22;10421;49.142;9.232;2024-02-21T02:45:11;10.60;99.90
20526;DHT22;10421;49.142;9.232;2024-02-21T02:47:39;10.40;99.90
20526;DHT22;10421;49.142;9.232;2024-02-21T02:50:07;10.30;99.90
20526;DHT22;10421;49.142;9.232;2024-02-21T02:52:34;9.80;99.90
20526;DHT22;10421;49.142;9.232;2024-02-21T02:55:01;9.80;99.90
20526;DHT22;10421;49.142;9.232;2024-02-21T02:57:28;9.70;99.90
20526;DHT22;10421;49.142;9.232;2024-02-21T02:59:56;9.90;99.90
20526;DHT22;10421;49.142;9.232;2024-02-21T03:02:23;9.70;99.90
20526;DHT22;10421;49.142;9.232;2024-02-21T03:04:50;9.70;99.90
20526;DHT22;10421;49.142;9.232;2024-02-21T03:07:17;9.60;99.90
20526;DHT22;10421;49.142;9.232;2024-02-21T03:09:43;9.60;99.90
20526;DHT22;10421;49.142;9.232;2024-02-21T03:12:10;9.60;99.90
20526;DHT22;10421;49.142;9.232;2024-02-21T03:14:37;9.70;99.90
20526;DHT22;10421;49.142;9.232;2024-02-21T03:17:05;9.80;99.90
20526;DHT22;10421;49.142;9.232;2024-02-21T03:19:32;9.70;99.90
20526;DHT22;10421;49.142;9.232;2024-02-21T03:21:59;9.70;99.90
20526;DHT22;10421;49.142;9.232;2024-02-21T03:24:25;9.80;99.90
20526;DHT22;10421;49.142;9.232;2024-02-21T03:26:52;9.90;99.90
20526;DHT22;10421;49.142;9.232;2024-02-21T03:29:19;9.90;99.90
20526;DHT22;10421;49.142;9.232;2024-02-21T03:31:45;9.70;99.90
20526;DHT22;10421;49.142;9.232;2024-02-21T03:34:13;9.50;99.90
20526;DHT22;10421;49.142;9.232;2024-02-21T03:36:40;9.40;99.90
20526;DHT22;10421;49.142;9.232;2024-02-21T03:39:07;9.40;99.90
20526;DHT22;10421;49.142;9.232;2024-02-21T03:41:34;9.40;99.90
20526;DHT22;10421;49.142;9.232;2024-02-21T03:44:01;9.60;99.90
20526;DHT22;10421;49.142;9.232;2024-02-21T03:46:28;9.70;99.90
20526;DHT22;10421;49.142;9.232;2024-02-21T03:48:54;9.70;99.90
20526;DHT22;10421;49.142;9.232;2024-02-21T03:51:23;9.50;99.90
20526;DHT22;10421;49.142;9.232;2024-02-21T03:53:49;9.60;99.90
20526;DHT22;10421;49.142;9.232;2024-02-21T03:56:16;9.70;99.90
20526;DHT22;10421;49.142;9.232;2024-02-21T03:58:43;9.70;99.90
20526;DHT22;10421;49.142;9.232;2024-02-21T04:01:09;9.70;99.90
20526;DHT22;10421;49.142;9.232;2024-02-21T04:03:36;9.70;99.90
20526;DHT22;10421;49.142;9.232;2024-02-21T04:06:03;9.70;99.90
20526;DHT22;10421;49.142;9.232;2024-02-21T04:08:32;9.80;99.90
20526;DHT22;10421;49.142;9.232;2024-02-21T04:10:59;9.70;99.90
20526;DHT22;10421;49.142;9.232;2024-02-21T04:13:25;9.70;99.90
20526;DHT22;10421;49.142;9.232;2024-02-21T04:15:52;9.60;99.90
20526;DHT22;10421;49.142;9.232;2024-02-21T04:18:19;9.50;99.90
20526;DHT22;10421;49.142;9.232;2024-02-21T04:20:46;9.50;99.90
20526;DHT22;10421;49.142;9.232;2024-02-21T04:23:13;9.50;99.90
20526;DHT22;10421;49.142;9.232;2024-02-21T04:25:41;9.50;99.90
20526;DHT22;10421;49.142;9.232;2024-02-21T04:28:08;9.50;99.90
20526;DHT22;10421;49.142;9.232;2024-02-21T04:30:34;9.50;99.90
20526;DHT22;10421;49.142;9.232;2024-02-21T04:33:01;9.70;99.90
20526;DHT22;10421;49.142;9.232;2024-02-21T04:35:28;9.80;99.90
20526;DHT22;10421;49.142;9.232;2024-02-21T04:37:55;9.80;99.90
20526;DHT22;10421;49.142;9.232;2024-02-21T04:40:21;9.90;99.90
20526;DHT22;10421;49.142;9.232;2024-02-21T04:42:49;9.80;99.90
20526;DHT22;10421;49.142;9.232;2024-02-21T04:45:16;10.00;99.90
20526;DHT22;10421;49.142;9.232;2024-02-21T04:47:43;10.20;99.90
20526;DHT22;10421;49.142;9.232;2024-02-21T04:50:10;10.30;99.90
20526;DHT22;10421;49.142;9.232;2024-02-21T04:52:38;10.40;99.90
20526;DHT22;10421;49.142;9.232;2024-02-21T04:55:05;10.30;99.90
20526;DHT22;10421;49.142;9.232;2024-02-21T04:57:32;9.90;99.90
20526;DHT22;10421;49.142;9.232;2024-02-21T05:00:00;9.90;99.90
20526;DHT22;10421;49.142;9.232;2024-02-21T05:02:29;10.00;99.90
20526;DHT22;10421;49.142;9.232;2024-02-21T05:04:55;10.00;99.90
20526;DHT22;10421;49.142;9.232;2024-02-21T05:07:22;9.80;99.90
20526;DHT22;10421;49.142;9.232;2024-02-21T05:09:49;9.90;99.90
20526;DHT22;10421;49.142;9.232;2024-02-21T05:12:16;10.10;99.90
20526;DHT22;10421;49.142;9.232;2024-02-21T05:14:43;10.20;99.90
20526;DHT22;10421;49.142;9.232;2024-02-21T05:17:11;10.30;99.90
20526;DHT22;10421;49.142;9.232;2024-02-21T05:19:37;10.40;99.90
20526;DHT22;10421;49.142;9.232;2024-02-21T05:22:04;10.20;99.90
20526;DHT22;10421;49.142;9.232;2024-02-21T05:24:31;10.20;99.90
20526;DHT22;10421;49.142;9.232;2024-02-21T05:26:57;10.30;99.90
20526;DHT22;10421;49.142;9.232;2024-02-21T05:29:24;10.40;99.90
20526;DHT22;10421;49.142;9.232;2024-02-21T05:31:57;10.50;99.90
20526;DHT22;10421;49.142;9.232;2024-02-21T05:34:26;10.60;99.90
20526;DHT22;10421;49.142;9.232;2024-02-21T05:36:53;10.70;99.90
20526;DHT22;10421;49.142;9.232;2024-02-21T05:39:20;10.80;99.90
20526;DHT22;10421;49.142;9.232;2024-02-21T05:41:48;10.80;99.90
20526;DHT22;10421;49.142;9.232;2024-02-21T05:44:16;10.90;99.90
20526;DHT22;10421;49.142;9.232;2024-02-21T05:46:43;11.00;99.90
20526;DHT22;10421;49.142;9.232;2024-02-21T05:49:09;11.00;99.90
20526;DHT22;10421;49.142;9.232;2024-02-21T05:51:37;11.00;99.90
20526;DHT22;10421;49.142;9.232;2024-02-21T05:54:04;11.00;99.90
20526;DHT22;10421;49.142;9.232;2024-02-21T05:56:32;11.10;99.90
20526;DHT22;10421;49.142;9.232;2024-02-21T05:58:59;11.00;99.90
20526;DHT22;10421;49.142;9.232;2024-02-21T06:01:26;11.00;99.90
20526;DHT22;10421;49.142;9.232;2024-02-21T06:03:53;11.00;99.90
20526;DHT22;10421;49.142;9.232;2024-02-21T06:06:20;10.90;99.90
20526;DHT22;10421;49.142;9.232;2024-02-21T06:08:48;10.80;99.90
20526;DHT22;10421;49.142;9.232;2024-02-21T06:11:15;10.70;99.90
20526;DHT22;10421;49.142;9.232;2024-02-21T06:13:42;10.50;99.90
20526;DHT22;10421;49.142;9.232;2024-02-21T06:16:08;10.10;99.90
20526;DHT22;10421;49.142;9.232;2024-02-21T06:18:35;10.10;99.90
20526;DHT22;10421;49.142;9.232;2024-02-21T06:21:03;10.10;99.90
20526;DHT22;10421;49.142;9.232;2024-02-21T06:23:30;10.20;99.90
20526;DHT22;10421;49.142;9.232;2024-02-21T06:25:58;10.30;99.90
20526;DHT22;10421;49.142;9.232;2024-02-21T06:28:25;10.30;99.90
20526;DHT22;10421;49.142;9.232;2024-02-21T06:30:52;10.40;99.90
20526;DHT22;10421;49.142;9.232;2024-02-21T06:33:18;10.40;99.90
20526;DHT22;10421;49.142;9.232;2024-02-21T06:35:48;10.50;99.90
20526;DHT22;10421;49.142;9.232;2024-02-21T06:38:17;10.40;99.90
20526;DHT22;10421;49.142;9.232;2024-02-21T06:40:44;10.50;99.90
20526;DHT22;10421;49.142;9.232;2024-02-21T06:43:17;10.40;99.90
20526;DHT22;10421;49.142;9.232;2024-02-21T06:45:44;10.50;99.90
20526;DHT22;10421;49.142;9.232;2024-02-21T06:48:13;10.60;99.90
20526;DHT22;10421;49.142;9.232;2024-02-21T06:50:39;10.70;99.90
20526;DHT22;10421;49.142;9.232;2024-02-21T06:53:07;10.70;99.90
20526;DHT22;10421;49.142;9.232;2024-02-21T06:55:33;10.70;99.90
20526;DHT22;10421;49.142;9.232;2024-02-21T06:58:00;10.80;99.90
20526;DHT22;10421;49.142;9.232;2024-02-21T07:00:29;10.80;99.90
20526;DHT22;10421;49.142;9.232;2024-02-21T07:02:56;10.90;99.90
20526;DHT22;10421;49.142;9.232;2024-02-21T07:05:23;11.00;99.80
20526;DHT22;10421;49.142;9.232;2024-02-21T07:07:50;10.90;99.70
20526;DHT22;10421;49.142;9.232;2024-02-21T07:10:17;10.90;99.80
20526;DHT22;10421;49.142;9.232;2024-02-21T07:12:47;10.90;99.70
20526;DHT22;10421;49.142;9.232;2024-02-21T07:15:14;10.90;99.50
20526;DHT22;10421;49.142;9.232;2024-02-21T07:17:42;11.00;99.80
20526;DHT22;10421;49.142;9.232;2024-02-21T07:20:09;11.10;99.50
20526;DHT22;10421;49.142;9.232;2024-02-21T07:22:36;11.10;99.30
20526;DHT22;10421;49.142;9.232;2024-02-21T07:25:04;10.90;99.30
20526;DHT22;10421;49.142;9.232;2024-02-21T07:27:31;10.80;99.50
20526;DHT22;10421;49.142;9.232;2024-02-21T07:29:58;10.70;99.90
20526;DHT22;10421;49.142;9.232;2024-02-21T07:32:25;10.80;99.90
20526;DHT22;10421;49.142;9.232;2024-02-21T07:34:53;10.90;99.90
20526;DHT22;10421;49.142;9.232;2024-02-21T07:37:20;11.00;99.90
20526;DHT22;10421;49.142;9.232;2024-02-21T07:39:46;10.80;99.50
20526;DHT22;10421;49.142;9.232;2024-02-21T07:42:13;10.80;99.40
20526;DHT22;10421;49.142;9.232;2024-02-21T07:44:41;10.70;99.70
20526;DHT22;10421;49.142;9.232;2024-02-21T07:47:07;10.70;99.70
20526;DHT22;10421;49.142;9.232;2024-02-21T07:49:41;10.80;99.30
20526;DHT22;10421;49.142;9.232;2024-02-21T07:52:09;10.70;99.30
20526;DHT22;10421;49.142;9.232;2024-02-21T07:54:36;10.40;99.50
20526;DHT22;10421;49.142;9.232;2024-02-21T07:57:03;10.30;99.50
20526;DHT22;10421;49.142;9.232;2024-02-21T07:59:30;10.10;99.90
20526;DHT22;10421;49.142;9.232;2024-02-21T08:01:57;10.10;99.90
20526;DHT22;10421;49.142;9.232;2024-02-21T08:04:24;10.30;99.90
20526;DHT22;10421;49.142;9.232;2024-02-21T08:06:52;10.30;99.90
20526;DHT22;10421;49.142;9.232;2024-02-21T08:09:22;10.50;99.90
20526;DHT22;10421;49.142;9.232;2024-02-21T08:11:49;10.70;99.90
20526;DHT22;10421;49.142;9.232;2024-02-21T08:14:16;10.60;99.70
20526;DHT22;10421;49.142;9.232;2024-02-21T08:16:43;10.70;99.20
20526;DHT22;10421;49.142;9.232;2024-02-21T08:19:10;10.50;99.60
20526;DHT22;10421;49.142;9.232;2024-02-21T08:21:37;10.60;99.40
20526;DHT22;10421;49.142;9.232;2024-02-21T08:24:04;10.40;99.70
20526;DHT22;10421;49.142;9.232;2024-02-21T08:26:32;10.60;99.80
20526;DHT22;10421;49.142;9.232;2024-02-21T08:28:59;10.80;99.70
20526;DHT22;10421;49.142;9.232;2024-02-21T08:31:26;10.80;99.50
20526;DHT22;10421;49.142;9.232;2024-02-21T08:33:57;10.80;99.70
20526;DHT22;10421;49.142;9.232;2024-02-21T08:36:27;10.80;99.50
20526;DHT22;10421;49.142;9.232;2024-02-21T08:38:55;10.70;99.20
20526;DHT22;10421;49.142;9.232;2024-02-21T08:41:21;10.40;99.50
20526;DHT22;10421;49.142;9.232;2024-02-21T08:43:51;10.30;99.90
20526;DHT22;10421;49.142;9.232;2024-02-21T08:46:17;10.20;99.90
20526;DHT22;10421;49.142;9.232;2024-02-21T08:48:44;10.00;99.90
20526;DHT22;10421;49.142;9.232;2024-02-21T08:51:12;10.00;99.90
20526;DHT22;10421;49.142;9.232;2024-02-21T08:53:39;10.00;99.90
20526;DHT22;10421;49.142;9.232;2024-02-21T08:56:06;9.90;99.90
20526;DHT22;10421;49.142;9.232;2024-02-21T08:58:35;10.00;99.90
20526;DHT22;10421;49.142;9.232;2024-02-21T09:01:04;10.10;99.90
20526;DHT22;10421;49.142;9.232;2024-02-21T09:03:32;10.20;99.90
20526;DHT22;10421;49.142;9.232;2024-02-21T09:05:59;10.10;99.90
20526;DHT22;10421;49.142;9.232;2024-02-21T09:08:26;10.30;99.90
20526;DHT22;10421;49.142;9.232;2024-02-21T09:10:53;10.40;99.90
20526;DHT22;10421;49.142;9.232;2024-02-21T09:13:19;10.30;99.90
20526;DHT22;10421;49.142;9.232;2024-02-21T09:15:47;10.40;99.90
20526;DHT22;10421;49.142;9.232;2024-02-21T09:18:15;10.60;99.90
20526;DHT22;10421;49.142;9.232;2024-02-21T09:20:43;10.40;99.90
20526;DHT22;10421;49.142;9.232;2024-02-21T09:23:09;10.50;99.90
20526;DHT22;10421;49.142;9.232;2024-02-21T09:25:36;10.40;99.90
20526;DHT22;10421;49.142;9.232;2024-02-21T09:28:03;10.40;99.90
20526;DHT22;10421;49.142;9.232;2024-02-21T09:30:31;10.40;99.90
20526;DHT22;10421;49.142;9.232;2024-02-21T09:32:58;10.40;99.90
20526;DHT22;10421;49.142;9.232;2024-02-21T09:35:28;10.30;99.90
20526;DHT22;10421;49.142;9.232;2024-02-21T09:37:55;10.40;99.90
20526;DHT22;10421;49.142;9.232;2024-02-21T09:40:22;10.50;99.90
20526;DHT22;10421;49.142;9.232;2024-02-21T09:43:00;10.40;99.90
20526;DHT22;10421;49.142;9.232;2024-02-21T09:45:28;10.30;99.90
20526;DHT22;10421;49.142;9.232;2024-02-21T09:48:19;10.60;99.90
20526;DHT22;10421;49.142;9.232;2024-02-21T09:50:51;10.80;99.90
20526;DHT22;10421;49.142;9.232;2024-02-21T09:53:19;11.00;99.90
20526;DHT22;10421;49.142;9.232;2024-02-21T09:55:47;11.20;99.50
20526;DHT22;10421;49.142;9.232;2024-02-21T09:58:15;11.30;99.50
20526;DHT22;10421;49.142;9.232;2024-02-21T10:00:42;11.40;99.10
20526;DHT22;10421;49.142;9.232;2024-02-21T10:03:09;11.70;99.00
20526;DHT22;10421;49.142;9.232;2024-02-21T10:05:36;11.70;98.20
20526;DHT22;10421;49.142;9.232;2024-02-21T10:08:05;11.40;98.80
20526;DHT22;10421;49.142;9.232;2024-02-21T10:10:41;11.20;99.20
20526;DHT22;10421;49.142;9.232;2024-02-21T10:13:09;11.30;98.80
20526;DHT22;10421;49.142;9.232;2024-02-21T10:15:36;11.40;98.90
20526;DHT22;10421;49.142;9.232;2024-02-21T10:18:03;11.60;98.50
20526;DHT22;10421;49.142;9.232;2024-02-21T10:20:30;11.70;98.60
20526;DHT22;10421;49.142;9.232;2024-02-21T10:23:04;12.00;98.20
20526;DHT22;10421;49.142;9.232;2024-02-21T10:25:33;12.10;97.60
20526;DHT22;10421;49.142;9.232;2024-02-21T10:28:01;12.40;97.60
20526;DHT22;10421;49.142;9.232;2024-02-21T10:30:29;12.60;96.80
20526;DHT22;10421;49.142;9.232;2024-02-21T10:32:55;12.60;96.90
20526;DHT22;10421;49.142;9.232;2024-02-21T10:35:27;12.70;96.50
20526;DHT22;10421;49.142;9.232;2024-02-21T10:37:54;12.60;96.30
20526;DHT22;10421;49.142;9.232;2024-02-21T10:40:24;12.50;96.60
20526;DHT22;10421;49.142;9.232;2024-02-21T10:42:56;12.60;96.60
20526;DHT22;10421;49.142;9.232;2024-02-21T10:45:28;12.80;96.30
20526;DHT22;10421;49.142;9.232;2024-02-21T10:47:56;12.90;96.00
20526;DHT22;10421;49.142;9.232;2024-02-21T10:50:32;12.90;96.00
20526;DHT22;10421;49.142;9.232;2024-02-21T10:53:07;13.00;96.20
20526;DHT22;10421;49.142;9.232;2024-02-21T10:55:41;13.20;95.60
20526;DHT22;10421;49.142;9.232;2024-02-21T10:58:09;13.20;94.90
20526;DHT22;10421;49.142;9.232;2024-02-21T11:00:37;13.30;94.90
20526;DHT22;10421;49.142;9.232;2024-02-21T11:03:04;13.40;94.30
20526;DHT22;10421;49.142;9.232;2024-02-21T11:05:32;13.30;94.50
20526;DHT22;10421;49.142;9.232;2024-02-21T11:07:59;13.20;93.90
20526;DHT22;10421;49.142;9.232;2024-02-21T11:10:27;13.10;93.70
20526;DHT22;10421;49.142;9.232;2024-02-21T11:13:05;13.00;94.30
20526;DHT22;10421;49.142;9.232;2024-02-21T11:15:33;13.10;93.90
20526;DHT22;10421;49.142;9.232;2024-02-21T11:17:59;13.10;93.70
20526;DHT22;10421;49.142;9.232;2024-02-21T11:20:32;13.20;93.90
20526;DHT22;10421;49.142;9.232;2024-02-21T11:22:59;13.40;93.70
20526;DHT22;10421;49.142;9.232;2024-02-21T11:25:27;13.50;93.50
20526;DHT22;10421;49.142;9.232;2024-02-21T11:28:01;13.50;93.20
20526;DHT22;10421;49.142;9.232;2024-02-21T11:30:29;13.70;93.30
20526;DHT22;10421;49.142;9.232;2024-02-21T11:33:03;13.90;92.90
20526;DHT22;10421;49.142;9.232;2024-02-21T11:35:33;13.90;92.60
20526;DHT22;10421;49.142;9.232;2024-02-21T11:38:13;13.80;92.90
20526;DHT22;10421;49.142;9.232;2024-02-21T11:40:43;13.90;92.20
20526;DHT22;10421;49.142;9.232;2024-02-21T11:43:12;13.80;92.40
20526;DHT22;10421;49.142;9.232;2024-02-21T11:45:39;13.40;92.30
20526;DHT22;10421;49.142;9.232;2024-02-21T11:48:06;13.20;92.60
20526;DHT22;10421;49.142;9.232;2024-02-21T11:50:34;13.20;92.90
20526;DHT22;10421;49.142;9.232;2024-02-21T11:53:01;13.10;93.00
20526;DHT22;10421;49.142;9.232;2024-02-21T11:55:29;13.10;93.00
20526;DHT22;10421;49.142;9.232;2024-02-21T11:57:56;13.10;93.20
20526;DHT22;10421;49.142;9.232;2024-02-21T12:00:26;13.10;92.80
20526;DHT22;10421;49.142;9.232;2024-02-21T12:02:52;13.20;92.60
20526;DHT22;10421;49.142;9.232;2024-02-21T12:05:21;13.10;92.70
20526;DHT22;10421;49.142;9.232;2024-02-21T12:07:47;13.00;93.20
20526;DHT22;10421;49.142;9.232;2024-02-21T12:10:14;12.80;93.60
20526;DHT22;10421;49.142;9.232;2024-02-21T12:12:41;12.80;93.50
20526;DHT22;10421;49.142;9.232;2024-02-21T12:15:08;12.80;93.20
20526;DHT22;10421;49.142;9.232;2024-02-21T12:17:37;12.80;93.30
20526;DHT22;10421;49.142;9.232;2024-02-21T12:20:05;12.80;93.50
20526;DHT22;10421;49.142;9.232;2024-02-21T12:22:35;13.00;93.30
20526;DHT22;10421;49.142;9.232;2024-02-21T12:25:03;12.90;93.50
20526;DHT22;10421;49.142;9.232;2024-02-21T12:27:33;13.00;93.20
20526;DHT22;10421;49.142;9.232;2024-02-21T12:30:00;13.20;92.90
20526;DHT22;10421;49.142;9.232;2024-02-21T12:32:26;13.30;92.70
20526;DHT22;10421;49.142;9.232;2024-02-21T12:34:55;13.50;92.40
20526;DHT22;10421;49.142;9.232;2024-02-21T12:37:22;13.70;92.00
20526;DHT22;10421;49.142;9.232;2024-02-21T12:39:48;13.70;91.80
20526;DHT22;10421;49.142;9.232;2024-02-21T12:42:15;13.60;91.90
20526;DHT22;10421;49.142;9.232;2024-02-21T12:44:42;13.40;92.70
20526;DHT22;10421;49.142;9.232;2024-02-21T12:47:09;13.40;92.10
20526;DHT22;10421;49.142;9.232;2024-02-21T12:49:36;13.60;92.20
20526;DHT22;10421;49.142;9.232;2024-02-21T12:52:05;13.80;91.70
20526;DHT22;10421;49.142;9.232;2024-02-21T12:54:32;14.00;91.60
20526;DHT22;10421;49.142;9.232;2024-02-21T12:56:59;14.00;91.70
20526;DHT22;10421;49.142;9.232;2024-02-21T12:59:28;14.00;91.50
20526;DHT22;10421;49.142;9.232;2024-02-21T13:01:55;13.90;91.50
20526;DHT22;10421;49.142;9.232;2024-02-21T13:04:21;14.00;91.60
20526;DHT22;10421;49.142;9.232;2024-02-21T13:06:48;14.10;91.40
20526;DHT22;10421;49.142;9.232;2024-02-21T13:09:16;14.30;91.30
20526;DHT22;10421;49.142;9.232;2024-02-21T13:11:43;14.50;91.10
20526;DHT22;10421;49.142;9.232;2024-02-21T13:14:11;14.60;90.20
20526;DHT22;10421;49.142;9.232;2024-02-21T13:16:38;14.60;90.10
20526;DHT22;10421;49.142;9.232;2024-02-21T13:19:06;14.80;90.00
20526;DHT22;10421;49.142;9.232;2024-02-21T13:21:32;14.80;89.00
20526;DHT22;10421;49.142;9.232;2024-02-21T13:23:59;14.80;89.20
20526;DHT22;10421;49.142;9.232;2024-02-21T13:26:27;14.60;89.80
20526;DHT22;10421;49.142;9.232;2024-02-21T13:28:55;14.20;90.10
20526;DHT22;10421;49.142;9.232;2024-02-21T13:31:22;14.10;90.20
20526;DHT22;10421;49.142;9.232;2024-02-21T13:33:50;14.10;90.60
20526;DHT22;10421;49.142;9.232;2024-02-21T13:36:17;14.10;90.60
20526;DHT22;10421;49.142;9.232;2024-02-21T13:38:44;14.00;90.50
20526;DHT22;10421;49.142;9.232;2024-02-21T13:41:11;14.10;91.30
20526;DHT22;10421;49.142;9.232;2024-02-21T13:43:39;13.80;90.60
20526;DHT22;10421;49.142;9.232;2024-02-21T13:46:06;13.70;91.00
20526;DHT22;10421;49.142;9.232;2024-02-21T13:48:35;13.70;90.90
20526;DHT22;10421;49.142;9.232;2024-02-21T13:51:02;13.80;90.30
20526;DHT22;10421;49.142;9.232;2024-02-21T13:53:29;13.90;89.70
20526;DHT22;10421;49.142;9.232;2024-02-21T13:55:55;13.90;90.00
20526;DHT22;10421;49.142;9.232;2024-02-21T13:58:22;13.90;89.40
20526;DHT22;10421;49.142;9.232;2024-02-21T14:00:52;14.00;88.40
20526;DHT22;10421;49.142;9.232;2024-02-21T14:03:19;14.10;88.20
20526;DHT22;10421;49.142;9.232;2024-02-21T14:05:46;14.30;88.40
20526;DHT22;10421;49.142;9.232;2024-02-21T14:08:13;14.40;88.20
20526;DHT22;10421;49.142;9.232;2024-02-21T14:10:40;14.50;87.90
20526;DHT22;10421;49.142;9.232;2024-02-21T14:13:07;14.50;88.30
20526;DHT22;10421;49.142;9.232;2024-02-21T14:15:33;14.60;87.10
20526;DHT22;10421;49.142;9.232;2024-02-21T14:18:03;14.60;86.70
20526;DHT22;10421;49.142;9.232;2024-02-21T14:20:34;14.70;86.40
20526;DHT22;10421;49.142;9.232;2024-02-21T14:23:00;14.60;86.50
20526;DHT22;10421;49.142;9.232;2024-02-21T14:25:27;14.50;87.00
20526;DHT22;10421;49.142;9.232;2024-02-21T14:27:54;14.60;87.40
20526;DHT22;10421;49.142;9.232;2024-02-21T14:30:21;14.60;86.70
20526;DHT22;10421;49.142;9.232;2024-02-21T14:32:48;14.40;87.10
20526;DHT22;10421;49.142;9.232;2024-02-21T14:35:16;14.30;86.90
20526;DHT22;10421;49.142;9.232;2024-02-21T14:37:42;14.10;86.70
20526;DHT22;10421;49.142;9.232;2024-02-21T14:40:11;14.10;87.60
20526;DHT22;10421;49.142;9.232;2024-02-21T14:42:38;14.00;88.00
20526;DHT22;10421;49.142;9.232;2024-02-21T14:45:06;14.00;88.20
20526;DHT22;10421;49.142;9.232;2024-02-21T14:47:33;14.20;88.10
20526;DHT22;10421;49.142;9.232;2024-02-21T14:50:02;14.30;87.20
20526;DHT22;10421;49.142;9.232;2024-02-21T14:52:31;14.20;87.40
20526;DHT22;10421;49.142;9.232;2024-02-21T14:54:59;14.20;88.20
20526;DHT22;10421;49.142;9.232;2024-02-21T14:57:28;14.20;88.00
20526;DHT22;10421;49.142;9.232;2024-02-21T14:59:55;14.10;87.90
20526;DHT22;10421;49.142;9.232;2024-02-21T15:02:24;14.30;87.50
20526;DHT22;10421;49.142;9.232;2024-02-21T15:04:52;14.30;87.70
20526;DHT22;10421;49.142;9.232;2024-02-21T15:07:19;14.30;87.70
20526;DHT22;10421;49.142;9.232;2024-02-21T15:09:50;14.40;87.80
20526;DHT22;10421;49.142;9.232;2024-02-21T15:12:17;14.50;87.70
20526;DHT22;10421;49.142;9.232;2024-02-21T15:14:44;14.50;87.40
20526;DHT22;10421;49.142;9.232;2024-02-21T15:17:11;14.60;87.30
20526;DHT22;10421;49.142;9.232;2024-02-21T15:19:38;14.30;87.50
20526;DHT22;10421;49.142;9.232;2024-02-21T15:22:08;14.30;88.00
20526;DHT22;10421;49.142;9.232;2024-02-21T15:24:37;14.30;88.40
20526;DHT22;10421;49.142;9.232;2024-02-21T15:27:05;14.50;88.50
20526;DHT22;10421;49.142;9.232;2024-02-21T15:29:32;14.40;88.90
20526;DHT22;10421;49.142;9.232;2024-02-21T15:31:59;14.60;88.20
20526;DHT22;10421;49.142;9.232;2024-02-21T15:34:26;14.70;88.20